sensor_id;sensor_type;location;lat;lon;timestamp;P1;durP1;ratioP1;P2;durP2;ratioP2
21266;SDS011;10791;53.108;18.326;2024-02-15T00:00:38;22.50;;;11.17;;
21266;SDS011;10791;53.108;18.326;2024-02-15T00:06:01;22.40;;;11.87;;
21266;SDS011;10791;53.108;18.326;2024-02-15T00:11:05;26.83;;;13.33;;
21266;SDS011;10791;53.108;18.326;2024-02-15T00:16:08;24.23;;;10.87;;
21266;SDS011;10791;53.108;18.326;2024-02-15T00:21:14;21.53;;;12.40;;
21266;SDS011;10791;53.108;18.326;2024-02-15T00:26:17;36.17;;;13.93;;
21266;SDS011;10791;53.108;18.326;2024-02-15T00:31:21;26.67;;;12.97;;
21266;SDS011;10791;53.108;18.326;2024-02-15T00:36:26;32.00;;;13.73;;
21266;SDS011;10791;53.108;18.326;2024-02-15T00:41:29;34.87;;;13.50;;
21266;SDS011;10791;53.108;18.326;2024-02-15T00:46:34;27.00;;;13.30;;
21266;SDS011;10791;53.108;18.326;2024-02-15T00:51:38;29.97;;;11.73;;
21266;SDS011;10791;53.108;18.326;2024-02-15T00:56:41;28.67;;;14.47;;
21266;SDS011;10791;53.108;18.326;2024-02-15T01:01:44;28.43;;;14.47;;
21266;SDS011;10791;53.108;18.326;2024-02-15T01:06:48;33.73;;;15.43;;
21266;SDS011;10791;53.108;18.326;2024-02-15T01:11:52;32.87;;;13.50;;
21266;SDS011;10791;53.108;18.326;2024-02-15T01:16:55;27.20;;;14.23;;
21266;SDS011;10791;53.108;18.326;2024-02-15T01:21:59;29.60;;;12.70;;
21266;SDS011;10791;53.108;18.326;2024-02-15T01:27:02;30.63;;;14.60;;
21266;SDS011;10791;53.108;18.326;2024-02-15T01:32:06;30.50;;;14.37;;
21266;SDS011;10791;53.108;18.326;2024-02-15T01:37:09;32.43;;;14.37;;
21266;SDS011;10791;53.108;18.326;2024-02-15T01:42:13;32.90;;;14.07;;
21266;SDS011;10791;53.108;18.326;2024-02-15T01:47:17;29.67;;;12.33;;
21266;SDS011;10791;53.108;18.326;2024-02-15T01:52:26;26.03;;;13.07;;
21266;SDS011;10791;53.108;18.326;2024-02-15T01:57:31;27.77;;;12.57;;
21266;SDS011;10791;53.108;18.326;2024-02-15T02:02:35;23.87;;;12.70;;
21266;SDS011;10791;53.108;18.326;2024-02-15T02:07:44;22.87;;;11.70;;
21266;SDS011;10791;53.108;18.326;2024-02-15T02:12:48;28.77;;;12.40;;
21266;SDS011;10791;53.108;18.326;2024-02-15T02:17:52;25.40;;;11.77;;
21266;SDS011;10791;53.108;18.326;2024-02-15T02:23:03;33.17;;;15.03;;
21266;SDS011;10791;53.108;18.326;2024-02-15T02:28:16;31.13;;;13.07;;
21266;SDS011;10791;53.108;18.326;2024-02-15T02:33:19;28.10;;;13.20;;
21266;SDS011;10791;53.108;18.326;2024-02-15T02:38:25;28.80;;;12.47;;
21266;SDS011;10791;53.108;18.326;2024-02-15T02:43:30;25.07;;;11.20;;
21266;SDS011;10791;53.108;18.326;2024-02-15T02:48:34;24.57;;;11.70;;
21266;SDS011;10791;53.108;18.326;2024-02-15T02:53:37;26.40;;;10.73;;
21266;SDS011;10791;53.108;18.326;2024-02-15T02:58:40;24.83;;;11.67;;
21266;SDS011;10791;53.108;18.326;2024-02-15T03:03:45;20.70;;;11.03;;
21266;SDS011;10791;53.108;18.326;2024-02-15T03:08:50;22.67;;;10.93;;
21266;SDS011;10791;53.108;18.326;2024-02-15T03:13:56;23.90;;;10.30;;
21266;SDS011;10791;53.108;18.326;2024-02-15T03:19:02;23.63;;;10.40;;
21266;SDS011;10791;53.108;18.326;2024-02-15T03:24:05;24.10;;;10.57;;
21266;SDS011;10791;53.108;18.326;2024-02-15T03:29:08;23.33;;;10.87;;
21266;SDS011;10791;53.108;18.326;2024-02-15T03:34:12;18.57;;;10.37;;
21266;SDS011;10791;53.108;18.326;2024-02-15T03:39:16;28.03;;;12.53;;
21266;SDS011;10791;53.108;18.326;2024-02-15T03:44:19;19.33;;;9.83;;
21266;SDS011;10791;53.108;18.326;2024-02-15T03:49:22;22.47;;;11.43;;
21266;SDS011;10791;53.108;18.326;2024-02-15T03:54:25;23.40;;;11.90;;
21266;SDS011;10791;53.108;18.326;2024-02-15T03:59:28;21.23;;;11.33;;
21266;SDS011;10791;53.108;18.326;2024-02-15T04:04:35;20.80;;;10.93;;
21266;SDS011;10791;53.108;18.326;2024-02-15T04:09:40;21.90;;;11.33;;
21266;SDS011;10791;53.108;18.326;2024-02-15T04:14:43;24.10;;;11.80;;
21266;SDS011;10791;53.108;18.326;2024-02-15T04:19:50;29.70;;;12.70;;
21266;SDS011;10791;53.108;18.326;2024-02-15T04:24:55;24.83;;;11.67;;
21266;SDS011;10791;53.108;18.326;2024-02-15T04:29:59;21.53;;;10.93;;
21266;SDS011;10791;53.108;18.326;2024-02-15T04:35:03;25.03;;;10.87;;
21266;SDS011;10791;53.108;18.326;2024-02-15T04:40:11;24.23;;;11.27;;
21266;SDS011;10791;53.108;18.326;2024-02-15T04:45:17;25.27;;;12.37;;
21266;SDS011;10791;53.108;18.326;2024-02-15T04:50:21;27.07;;;12.33;;
21266;SDS011;10791;53.108;18.326;2024-02-15T04:55:24;25.83;;;12.13;;
21266;SDS011;10791;53.108;18.326;2024-02-15T05:00:29;24.13;;;12.03;;
21266;SDS011;10791;53.108;18.326;2024-02-15T05:05:33;31.13;;;14.10;;
21266;SDS011;10791;53.108;18.326;2024-02-15T05:10:36;31.70;;;14.60;;
21266;SDS011;10791;53.108;18.326;2024-02-15T05:15:39;27.57;;;14.60;;
21266;SDS011;10791;53.108;18.326;2024-02-15T05:20:42;30.43;;;14.27;;
21266;SDS011;10791;53.108;18.326;2024-02-15T05:25:46;34.30;;;15.67;;
21266;SDS011;10791;53.108;18.326;2024-02-15T05:30:49;28.13;;;14.93;;
21266;SDS011;10791;53.108;18.326;2024-02-15T05:35:52;34.50;;;14.80;;
21266;SDS011;10791;53.108;18.326;2024-02-15T05:40:56;30.83;;;13.50;;
21266;SDS011;10791;53.108;18.326;2024-02-15T05:45:59;30.53;;;15.27;;
21266;SDS011;10791;53.108;18.326;2024-02-15T05:51:03;41.23;;;16.57;;
21266;SDS011;10791;53.108;18.326;2024-02-15T05:56:08;38.63;;;17.53;;
21266;SDS011;10791;53.108;18.326;2024-02-15T06:01:12;37.67;;;16.47;;
21266;SDS011;10791;53.108;18.326;2024-02-15T06:06:16;31.13;;;15.17;;
21266;SDS011;10791;53.108;18.326;2024-02-15T06:11:20;34.80;;;16.73;;
21266;SDS011;10791;53.108;18.326;2024-02-15T06:16:23;33.73;;;16.73;;
21266;SDS011;10791;53.108;18.326;2024-02-15T06:21:27;36.30;;;17.83;;
21266;SDS011;10791;53.108;18.326;2024-02-15T06:26:31;28.00;;;15.70;;
21266;SDS011;10791;53.108;18.326;2024-02-15T06:31:36;30.30;;;16.10;;
21266;SDS011;10791;53.108;18.326;2024-02-15T06:36:59;31.73;;;17.47;;
21266;SDS011;10791;53.108;18.326;2024-02-15T06:42:21;34.63;;;17.50;;
21266;SDS011;10791;53.108;18.326;2024-02-15T06:47:25;34.80;;;18.27;;
21266;SDS011;10791;53.108;18.326;2024-02-15T06:52:30;32.77;;;15.90;;
21266;SDS011;10791;53.108;18.326;2024-02-15T06:57:34;33.20;;;15.20;;
21266;SDS011;10791;53.108;18.326;2024-02-15T07:02:41;29.83;;;16.53;;
21266;SDS011;10791;53.108;18.326;2024-02-15T07:07:47;31.37;;;15.83;;
21266;SDS011;10791;53.108;18.326;2024-02-15T07:12:50;28.07;;;15.13;;
21266;SDS011;10791;53.108;18.326;2024-02-15T07:17:54;29.57;;;14.50;;
21266;SDS011;10791;53.108;18.326;2024-02-15T07:22:58;28.53;;;14.70;;
21266;SDS011;10791;53.108;18.326;2024-02-15T07:28:02;29.20;;;15.60;;
21266;SDS011;10791;53.108;18.326;2024-02-15T07:33:07;23.80;;;13.53;;
21266;SDS011;10791;53.108;18.326;2024-02-15T07:38:10;27.43;;;15.43;;
21266;SDS011;10791;53.108;18.326;2024-02-15T07:43:14;26.73;;;14.97;;
21266;SDS011;10791;53.108;18.326;2024-02-15T07:48:18;26.03;;;14.97;;
21266;SDS011;10791;53.108;18.326;2024-02-15T07:53:22;28.67;;;15.83;;
21266;SDS011;10791;53.108;18.326;2024-02-15T07:58:27;24.83;;;13.60;;
21266;SDS011;10791;53.108;18.326;2024-02-15T08:03:31;30.17;;;15.97;;
21266;SDS011;10791;53.108;18.326;2024-02-15T08:08:37;27.23;;;15.27;;
21266;SDS011;10791;53.108;18.326;2024-02-15T08:13:50;30.97;;;16.20;;
21266;SDS011;10791;53.108;18.326;2024-02-15T08:18:57;31.83;;;16.73;;
21266;SDS011;10791;53.108;18.326;2024-02-15T08:24:03;27.37;;;16.13;;
21266;SDS011;10791;53.108;18.326;2024-02-15T08:29:09;29.87;;;16.73;;
21266;SDS011;10791;53.108;18.326;2024-02-15T08:34:14;32.47;;;17.23;;
21266;SDS011;10791;53.108;18.326;2024-02-15T08:39:18;32.73;;;16.67;;
21266;SDS011;10791;53.108;18.326;2024-02-15T08:44:23;26.13;;;15.13;;
21266;SDS011;10791;53.108;18.326;2024-02-15T08:49:28;31.17;;;16.53;;
21266;SDS011;10791;53.108;18.326;2024-02-15T08:54:34;30.43;;;16.93;;
21266;SDS011;10791;53.108;18.326;2024-02-15T08:59:39;31.27;;;16.67;;
21266;SDS011;10791;53.108;18.326;2024-02-15T09:04:43;35.97;;;18.37;;
21266;SDS011;10791;53.108;18.326;2024-02-15T09:09:46;32.27;;;16.63;;
21266;SDS011;10791;53.108;18.326;2024-02-15T09:14:50;42.30;;;17.63;;
21266;SDS011;10791;53.108;18.326;2024-02-15T09:19:54;38.63;;;20.10;;
21266;SDS011;10791;53.108;18.326;2024-02-15T09:25:02;37.67;;;17.97;;
21266;SDS011;10791;53.108;18.326;2024-02-15T09:30:05;41.43;;;17.87;;
21266;SDS011;10791;53.108;18.326;2024-02-15T09:35:12;38.93;;;18.67;;
21266;SDS011;10791;53.108;18.326;2024-02-15T09:40:17;33.93;;;16.83;;
21266;SDS011;10791;53.108;18.326;2024-02-15T09:45:22;35.63;;;16.90;;
21266;SDS011;10791;53.108;18.326;2024-02-15T09:50:28;33.37;;;18.17;;
21266;SDS011;10791;53.108;18.326;2024-02-15T09:55:35;35.57;;;18.37;;
21266;SDS011;10791;53.108;18.326;2024-02-15T10:00:39;35.60;;;16.23;;
21266;SDS011;10791;53.108;18.326;2024-02-15T10:05:43;47.07;;;19.87;;
21266;SDS011;10791;53.108;18.326;2024-02-15T10:10:47;36.87;;;19.53;;
21266;SDS011;10791;53.108;18.326;2024-02-15T10:15:52;36.43;;;19.33;;
21266;SDS011;10791;53.108;18.326;2024-02-15T10:20:59;37.77;;;16.87;;
21266;SDS011;10791;53.108;18.326;2024-02-15T10:26:18;37.87;;;19.87;;
21266;SDS011;10791;53.108;18.326;2024-02-15T10:31:23;44.90;;;19.53;;
21266;SDS011;10791;53.108;18.326;2024-02-15T10:36:26;40.83;;;18.83;;
21266;SDS011;10791;53.108;18.326;2024-02-15T10:41:30;38.60;;;18.77;;
21266;SDS011;10791;53.108;18.326;2024-02-15T10:46:34;40.03;;;19.27;;
21266;SDS011;10791;53.108;18.326;2024-02-15T10:51:39;39.47;;;19.13;;
21266;SDS011;10791;53.108;18.326;2024-02-15T10:56:47;43.90;;;21.93;;
21266;SDS011;10791;53.108;18.326;2024-02-15T11:01:59;46.03;;;20.83;;
21266;SDS011;10791;53.108;18.326;2024-02-15T11:07:07;43.50;;;21.13;;
21266;SDS011;10791;53.108;18.326;2024-02-15T11:12:17;41.43;;;21.57;;
21266;SDS011;10791;53.108;18.326;2024-02-15T11:22:40;49.07;;;21.97;;
21266;SDS011;10791;53.108;18.326;2024-02-15T11:27:45;39.37;;;19.47;;
21266;SDS011;10791;53.108;18.326;2024-02-15T11:32:49;35.57;;;20.33;;
21266;SDS011;10791;53.108;18.326;2024-02-15T11:37:57;33.30;;;17.67;;
21266;SDS011;10791;53.108;18.326;2024-02-15T11:43:02;27.37;;;15.33;;
21266;SDS011;10791;53.108;18.326;2024-02-15T11:48:07;36.67;;;16.70;;
21266;SDS011;10791;53.108;18.326;2024-02-15T11:53:15;28.27;;;15.13;;
21266;SDS011;10791;53.108;18.326;2024-02-15T11:58:21;30.87;;;15.60;;
21266;SDS011;10791;53.108;18.326;2024-02-15T12:03:31;30.40;;;16.00;;
21266;SDS011;10791;53.108;18.326;2024-02-15T12:09:08;32.60;;;16.27;;
21266;SDS011;10791;53.108;18.326;2024-02-15T12:14:33;33.10;;;16.73;;
21266;SDS011;10791;53.108;18.326;2024-02-15T12:19:56;31.77;;;17.07;;
21266;SDS011;10791;53.108;18.326;2024-02-15T12:25:03;32.40;;;16.33;;
21266;SDS011;10791;53.108;18.326;2024-02-15T12:30:17;29.47;;;16.10;;
21266;SDS011;10791;53.108;18.326;2024-02-15T12:35:26;32.67;;;17.57;;
21266;SDS011;10791;53.108;18.326;2024-02-15T12:40:30;27.57;;;16.40;;
21266;SDS011;10791;53.108;18.326;2024-02-15T12:45:36;30.93;;;16.27;;
21266;SDS011;10791;53.108;18.326;2024-02-15T12:50:40;30.33;;;16.27;;
21266;SDS011;10791;53.108;18.326;2024-02-15T12:55:44;35.67;;;16.90;;
21266;SDS011;10791;53.108;18.326;2024-02-15T13:00:58;26.20;;;15.50;;
21266;SDS011;10791;53.108;18.326;2024-02-15T13:06:04;32.70;;;17.53;;
21266;SDS011;10791;53.108;18.326;2024-02-15T13:11:08;30.03;;;17.47;;
21266;SDS011;10791;53.108;18.326;2024-02-15T13:16:15;35.40;;;18.67;;
21266;SDS011;10791;53.108;18.326;2024-02-15T13:21:19;34.73;;;17.80;;
21266;SDS011;10791;53.108;18.326;2024-02-15T13:26:23;39.00;;;20.57;;
21266;SDS011;10791;53.108;18.326;2024-02-15T13:31:28;33.17;;;17.50;;
21266;SDS011;10791;53.108;18.326;2024-02-15T13:36:32;35.50;;;17.90;;
21266;SDS011;10791;53.108;18.326;2024-02-15T13:41:36;28.10;;;15.87;;
21266;SDS011;10791;53.108;18.326;2024-02-15T13:46:40;30.67;;;15.40;;
21266;SDS011;10791;53.108;18.326;2024-02-15T13:51:45;34.40;;;16.30;;
21266;SDS011;10791;53.108;18.326;2024-02-15T13:56:49;24.73;;;14.83;;
21266;SDS011;10791;53.108;18.326;2024-02-15T14:01:52;29.93;;;15.93;;
21266;SDS011;10791;53.108;18.326;2024-02-15T14:06:56;29.00;;;15.33;;
21266;SDS011;10791;53.108;18.326;2024-02-15T14:11:59;37.03;;;19.40;;
21266;SDS011;10791;53.108;18.326;2024-02-15T14:17:06;39.07;;;18.53;;
21266;SDS011;10791;53.108;18.326;2024-02-15T14:22:09;28.97;;;15.53;;
21266;SDS011;10791;53.108;18.326;2024-02-15T14:27:18;30.40;;;16.03;;
21266;SDS011;10791;53.108;18.326;2024-02-15T14:32:22;31.50;;;15.47;;
21266;SDS011;10791;53.108;18.326;2024-02-15T14:37:44;29.27;;;15.20;;
21266;SDS011;10791;53.108;18.326;2024-02-15T14:42:47;31.43;;;17.03;;
21266;SDS011;10791;53.108;18.326;2024-02-15T14:47:58;30.73;;;16.83;;
21266;SDS011;10791;53.108;18.326;2024-02-15T14:53:03;51.77;;;22.70;;
21266;SDS011;10791;53.108;18.326;2024-02-15T14:58:06;44.70;;;19.57;;
21266;SDS011;10791;53.108;18.326;2024-02-15T15:03:15;33.13;;;17.30;;
21266;SDS011;10791;53.108;18.326;2024-02-15T15:08:21;30.30;;;16.47;;
21266;SDS011;10791;53.108;18.326;2024-02-15T15:13:43;32.27;;;16.23;;
21266;SDS011;10791;53.108;18.326;2024-02-15T15:18:47;25.90;;;15.27;;
21266;SDS011;10791;53.108;18.326;2024-02-15T15:23:52;28.70;;;15.07;;
21266;SDS011;10791;53.108;18.326;2024-02-15T15:28:58;28.47;;;14.20;;
21266;SDS011;10791;53.108;18.326;2024-02-15T15:34:02;28.57;;;15.10;;
21266;SDS011;10791;53.108;18.326;2024-02-15T15:39:08;31.27;;;15.83;;
21266;SDS011;10791;53.108;18.326;2024-02-15T15:44:14;30.57;;;14.80;;
21266;SDS011;10791;53.108;18.326;2024-02-15T15:49:17;37.87;;;19.30;;
21266;SDS011;10791;53.108;18.326;2024-02-15T15:54:21;38.13;;;16.57;;
21266;SDS011;10791;53.108;18.326;2024-02-15T15:59:25;31.20;;;16.00;;
21266;SDS011;10791;53.108;18.326;2024-02-15T16:04:30;29.20;;;15.77;;
21266;SDS011;10791;53.108;18.326;2024-02-15T16:09:35;26.50;;;14.97;;
21266;SDS011;10791;53.108;18.326;2024-02-15T16:14:38;28.63;;;15.77;;
21266;SDS011;10791;53.108;18.326;2024-02-15T16:19:42;27.80;;;14.60;;
21266;SDS011;10791;53.108;18.326;2024-02-15T16:24:47;27.07;;;14.47;;
21266;SDS011;10791;53.108;18.326;2024-02-15T16:29:52;31.00;;;16.33;;
21266;SDS011;10791;53.108;18.326;2024-02-15T16:34:57;29.47;;;17.30;;
21266;SDS011;10791;53.108;18.326;2024-02-15T16:40:08;30.50;;;15.97;;
21266;SDS011;10791;53.108;18.326;2024-02-15T16:45:15;33.00;;;17.50;;
21266;SDS011;10791;53.108;18.326;2024-02-15T16:50:24;41.20;;;18.77;;
21266;SDS011;10791;53.108;18.326;2024-02-15T16:55:28;41.30;;;21.63;;
21266;SDS011;10791;53.108;18.326;2024-02-15T17:00:34;38.93;;;21.07;;
21266;SDS011;10791;53.108;18.326;2024-02-15T17:05:39;39.23;;;20.33;;
21266;SDS011;10791;53.108;18.326;2024-02-15T17:10:44;44.87;;;18.87;;
21266;SDS011;10791;53.108;18.326;2024-02-15T17:15:48;32.07;;;17.13;;
21266;SDS011;10791;53.108;18.326;2024-02-15T17:20:52;34.50;;;17.60;;
21266;SDS011;10791;53.108;18.326;2024-02-15T17:25:56;36.30;;;18.30;;
21266;SDS011;10791;53.108;18.326;2024-02-15T17:31:01;34.20;;;16.40;;
21266;SDS011;10791;53.108;18.326;2024-02-15T17:36:07;34.47;;;17.57;;
21266;SDS011;10791;53.108;18.326;2024-02-15T17:41:11;36.23;;;17.73;;
21266;SDS011;10791;53.108;18.326;2024-02-15T17:46:14;41.13;;;18.40;;
21266;SDS011;10791;53.108;18.326;2024-02-15T17:51:18;35.57;;;19.13;;
21266;SDS011;10791;53.108;18.326;2024-02-15T17:56:23;36.70;;;18.03;;
21266;SDS011;10791;53.108;18.326;2024-02-15T18:01:28;42.73;;;19.13;;
21266;SDS011;10791;53.108;18.326;2024-02-15T18:06:34;34.67;;;18.03;;
21266;SDS011;10791;53.108;18.326;2024-02-15T18:11:39;38.73;;;18.83;;
21266;SDS011;10791;53.108;18.326;2024-02-15T18:16:42;31.70;;;16.97;;
21266;SDS011;10791;53.108;18.326;2024-02-15T18:21:52;31.43;;;15.90;;
21266;SDS011;10791;53.108;18.326;2024-02-15T18:26:55;33.97;;;17.40;;
21266;SDS011;10791;53.108;18.326;2024-02-15T18:32:00;38.70;;;19.47;;
21266;SDS011;10791;53.108;18.326;2024-02-15T18:37:04;44.87;;;22.23;;
21266;SDS011;10791;53.108;18.326;2024-02-15T18:42:09;35.57;;;19.50;;
21266;SDS011;10791;53.108;18.326;2024-02-15T18:47:13;34.67;;;18.00;;
21266;SDS011;10791;53.108;18.326;2024-02-15T18:52:16;34.17;;;18.70;;
21266;SDS011;10791;53.108;18.326;2024-02-15T18:57:20;37.30;;;18.30;;
21266;SDS011;10791;53.108;18.326;2024-02-15T19:02:24;35.77;;;18.10;;
21266;SDS011;10791;53.108;18.326;2024-02-15T19:07:31;40.70;;;21.40;;
21266;SDS011;10791;53.108;18.326;2024-02-15T19:12:36;33.63;;;19.30;;
21266;SDS011;10791;53.108;18.326;2024-02-15T19:17:43;37.50;;;20.10;;
21266;SDS011;10791;53.108;18.326;2024-02-15T19:22:49;34.93;;;18.77;;
21266;SDS011;10791;53.108;18.326;2024-02-15T19:27:54;39.00;;;18.60;;
21266;SDS011;10791;53.108;18.326;2024-02-15T19:32:59;39.63;;;20.20;;
21266;SDS011;10791;53.108;18.326;2024-02-15T19:38:05;35.23;;;20.00;;
21266;SDS011;10791;53.108;18.326;2024-02-15T19:43:13;44.17;;;21.03;;
21266;SDS011;10791;53.108;18.326;2024-02-15T19:48:19;52.80;;;24.40;;
21266;SDS011;10791;53.108;18.326;2024-02-15T19:53:24;39.47;;;19.83;;
21266;SDS011;10791;53.108;18.326;2024-02-15T19:58:31;50.33;;;23.73;;
21266;SDS011;10791;53.108;18.326;2024-02-15T20:03:36;42.57;;;23.03;;
21266;SDS011;10791;53.108;18.326;2024-02-15T20:08:44;40.07;;;21.03;;
21266;SDS011;10791;53.108;18.326;2024-02-15T20:13:49;45.83;;;20.73;;
21266;SDS011;10791;53.108;18.326;2024-02-15T20:18:57;37.07;;;20.20;;
21266;SDS011;10791;53.108;18.326;2024-02-15T20:24:05;41.00;;;20.50;;
21266;SDS011;10791;53.108;18.326;2024-02-15T20:29:13;45.80;;;20.10;;
21266;SDS011;10791;53.108;18.326;2024-02-15T20:34:20;49.33;;;23.90;;
21266;SDS011;10791;53.108;18.326;2024-02-15T20:39:27;36.90;;;19.50;;
21266;SDS011;10791;53.108;18.326;2024-02-15T20:44:32;41.43;;;19.47;;
21266;SDS011;10791;53.108;18.326;2024-02-15T20:49:38;48.97;;;22.13;;
21266;SDS011;10791;53.108;18.326;2024-02-15T20:54:44;50.20;;;23.97;;
21266;SDS011;10791;53.108;18.326;2024-02-15T20:59:49;55.53;;;23.50;;
21266;SDS011;10791;53.108;18.326;2024-02-15T21:04:54;51.13;;;23.27;;
21266;SDS011;10791;53.108;18.326;2024-02-15T21:10:00;52.73;;;24.97;;
21266;SDS011;10791;53.108;18.326;2024-02-15T21:15:05;48.60;;;23.93;;
21266;SDS011;10791;53.108;18.326;2024-02-15T21:20:13;57.87;;;27.13;;
21266;SDS011;10791;53.108;18.326;2024-02-15T21:25:20;55.30;;;25.70;;
21266;SDS011;10791;53.108;18.326;2024-02-15T21:30:24;41.97;;;21.07;;
21266;SDS011;10791;53.108;18.326;2024-02-15T21:35:32;50.57;;;22.70;;
21266;SDS011;10791;53.108;18.326;2024-02-15T21:40:37;39.70;;;21.20;;
21266;SDS011;10791;53.108;18.326;2024-02-15T21:45:42;55.27;;;26.30;;
21266;SDS011;10791;53.108;18.326;2024-02-15T21:50:46;46.23;;;24.23;;
21266;SDS011;10791;53.108;18.326;2024-02-15T21:55:50;42.47;;;21.70;;
21266;SDS011;10791;53.108;18.326;2024-02-15T22:00:54;46.33;;;22.03;;
21266;SDS011;10791;53.108;18.326;2024-02-15T22:05:59;44.80;;;21.53;;
21266;SDS011;10791;53.108;18.326;2024-02-15T22:11:03;39.83;;;20.37;;
21266;SDS011;10791;53.108;18.326;2024-02-15T22:16:07;38.10;;;19.97;;
21266;SDS011;10791;53.108;18.326;2024-02-15T22:21:11;48.63;;;20.87;;
21266;SDS011;10791;53.108;18.326;2024-02-15T22:26:15;42.07;;;19.73;;
21266;SDS011;10791;53.108;18.326;2024-02-15T22:31:22;41.97;;;18.87;;
21266;SDS011;10791;53.108;18.326;2024-02-15T22:36:26;38.47;;;17.80;;
21266;SDS011;10791;53.108;18.326;2024-02-15T22:41:31;36.70;;;17.80;;
21266;SDS011;10791;53.108;18.326;2024-02-15T22:46:35;37.30;;;16.97;;
21266;SDS011;10791;53.108;18.326;2024-02-15T22:51:49;33.57;;;17.43;;
21266;SDS011;10791;53.108;18.326;2024-02-15T22:56:53;34.03;;;17.17;;
21266;SDS011;10791;53.108;18.326;2024-02-15T23:01:57;32.23;;;17.10;;
21266;SDS011;10791;53.108;18.326;2024-02-15T23:07:03;36.03;;;16.47;;
21266;SDS011;10791;53.108;18.326;2024-02-15T23:12:12;33.63;;;16.07;;
21266;SDS011;10791;53.108;18.326;2024-02-15T23:17:16;38.73;;;17.70;;
21266;SDS011;10791;53.108;18.326;2024-02-15T23:22:20;32.57;;;15.73;;
21266;SDS011;10791;53.108;18.326;2024-02-15T23:27:23;32.57;;;17.17;;
21266;SDS011;10791;53.108;18.326;2024-02-15T23:32:27;35.47;;;17.30;;
21266;SDS011;10791;53.108;18.326;2024-02-15T23:37:32;31.83;;;16.00;;
21266;SDS011;10791;53.108;18.326;2024-02-15T23:42:53;37.43;;;18.77;;
21266;SDS011;10791;53.108;18.326;2024-02-15T23:47:58;31.40;;;16.03;;
21266;SDS011;10791;53.108;18.326;2024-02-15T23:53:03;32.50;;;16.43;;
21266;SDS011;10791;53.108;18.326;2024-02-15T23:58:07;26.87;;;14.73;;
